createdAt,value
2018-07-05T00:02:06.376Z,16.60
2018-07-05T00:04:46.220Z,16.70
2018-07-05T00:07:25.829Z,16.70
2018-07-05T00:10:05.816Z,16.60
2018-07-05T00:12:45.556Z,16.60
2018-07-05T00:15:25.432Z,16.50
2018-07-05T00:18:04.986Z,16.60
2018-07-05T00:20:44.680Z,16.60
2018-07-05T00:23:24.488Z,16.50
2018-07-05T00:26:04.248Z,16.40
2018-07-05T00:28:43.833Z,16.30
2018-07-05T00:31:23.387Z,16.20
2018-07-05T00:34:03.388Z,16.20
2018-07-05T00:36:43.187Z,16.20
2018-07-05T00:39:22.945Z,16.10
2018-07-05T00:42:02.879Z,16.00
2018-07-05T00:44:42.590Z,16.00
2018-07-05T00:47:22.461Z,15.80
2018-07-05T00:50:02.105Z,15.70
2018-07-05T00:52:42.441Z,15.70
2018-07-05T00:55:22.215Z,15.60
2018-07-05T00:58:01.893Z,15.60
2018-07-05T01:00:41.505Z,15.50
2018-07-05T01:03:21.054Z,15.40
2018-07-05T01:06:00.806Z,15.40
2018-07-05T01:08:40.560Z,15.40
2018-07-05T01:11:20.471Z,15.40
2018-07-05T01:14:00.155Z,15.30
2018-07-05T01:16:39.896Z,15.30
2018-07-05T01:19:19.543Z,15.30
2018-07-05T01:21:59.470Z,15.20
2018-07-05T01:24:39.119Z,15.20
2018-07-05T01:27:18.899Z,15.30
2018-07-05T01:32:32.440Z,15.20
2018-07-05T01:35:13.109Z,15.10
2018-07-05T01:40:26.706Z,15.10
2018-07-05T01:43:06.408Z,15.10
2018-07-05T01:45:46.020Z,15.00
2018-07-05T01:48:25.735Z,15.00
2018-07-05T01:51:05.421Z,15.00
2018-07-05T01:53:45.345Z,15.00
2018-07-05T01:56:25.199Z,14.90
2018-07-05T01:59:04.892Z,14.90
2018-07-05T02:01:44.895Z,14.90
2018-07-05T02:04:24.471Z,14.80
2018-07-05T02:07:04.377Z,14.70
2018-07-05T02:09:44.049Z,14.70
2018-07-05T02:12:23.873Z,14.70
2018-07-05T02:15:03.537Z,14.80
2018-07-05T02:17:43.315Z,14.80
2018-07-05T02:20:23.027Z,14.80
2018-07-05T02:23:02.933Z,14.70
2018-07-05T02:25:42.525Z,14.70
2018-07-05T02:28:22.113Z,14.60
2018-07-05T02:31:01.941Z,14.60
2018-07-05T02:33:41.828Z,14.60
2018-07-05T02:36:21.355Z,14.60
2018-07-05T02:39:06.273Z,14.50
2018-07-05T02:41:45.808Z,14.50
2018-07-05T02:44:25.547Z,14.50
2018-07-05T02:47:05.377Z,14.50
2018-07-05T02:49:45.307Z,14.40
2018-07-05T02:52:25.013Z,14.30
2018-07-05T02:55:04.577Z,14.40
2018-07-05T02:57:44.386Z,14.40
2018-07-05T03:00:24.440Z,14.30
2018-07-05T03:03:04.153Z,14.30
2018-07-05T03:05:43.859Z,14.20
2018-07-05T03:08:23.759Z,14.20
2018-07-05T03:11:03.648Z,14.20
2018-07-05T03:13:43.599Z,14.20
2018-07-05T03:16:23.633Z,14.20
2018-07-05T03:19:03.487Z,14.20
2018-07-05T03:21:43.263Z,14.20
2018-07-05T03:24:23.071Z,14.20
2018-07-05T03:27:02.757Z,14.20
2018-07-05T03:29:42.510Z,14.30
2018-07-05T03:32:22.072Z,14.30
2018-07-05T03:35:01.880Z,14.20
2018-07-05T03:37:41.752Z,14.20
2018-07-05T03:40:21.428Z,14.20
2018-07-05T03:43:01.064Z,14.20
2018-07-05T03:45:40.722Z,14.20
2018-07-05T03:48:20.376Z,14.20
2018-07-05T03:51:00.112Z,14.30
2018-07-05T03:53:42.252Z,14.30
2018-07-05T03:56:21.752Z,14.40
2018-07-05T03:59:01.952Z,14.30
2018-07-05T04:01:41.991Z,14.30
2018-07-05T04:04:21.848Z,14.20
2018-07-05T04:07:02.261Z,14.20
2018-07-05T04:09:42.192Z,14.20
2018-07-05T04:12:22.411Z,14.30
2018-07-05T04:15:02.272Z,14.30
2018-07-05T04:17:41.860Z,14.40
2018-07-05T04:20:21.771Z,14.60
2018-07-05T04:23:01.532Z,14.60
2018-07-05T04:25:41.391Z,14.70
2018-07-05T04:28:21.137Z,14.70
2018-07-05T04:31:00.798Z,14.80
2018-07-05T04:33:40.932Z,14.90
2018-07-05T04:36:21.187Z,14.90
2018-07-05T04:39:00.877Z,15.00
2018-07-05T04:41:40.614Z,15.10
2018-07-05T04:44:20.396Z,15.20
2018-07-05T04:47:00.208Z,15.20
2018-07-05T04:49:39.909Z,15.30
2018-07-05T04:52:19.453Z,15.40
2018-07-05T04:54:59.126Z,15.50
2018-07-05T04:57:38.995Z,15.70
2018-07-05T05:00:18.580Z,15.80
2018-07-05T05:02:58.597Z,15.90
2018-07-05T05:05:38.377Z,16.00
2018-07-05T05:08:18.228Z,16.10
2018-07-05T05:10:57.960Z,16.20
2018-07-05T05:13:37.684Z,16.40
2018-07-05T05:16:17.444Z,16.50
2018-07-05T05:18:57.191Z,16.60
2018-07-05T05:21:37.120Z,16.80
2018-07-05T05:24:16.869Z,17.00
2018-07-05T05:26:56.892Z,17.10
2018-07-05T05:29:36.524Z,17.30
2018-07-05T05:32:16.165Z,17.50
2018-07-05T05:34:55.732Z,17.60
2018-07-05T05:37:35.520Z,17.80
2018-07-05T05:40:15.144Z,18.00
2018-07-05T05:42:54.967Z,18.00
2018-07-05T05:45:34.546Z,18.10
2018-07-05T05:48:14.245Z,18.20
2018-07-05T05:50:53.911Z,18.20
2018-07-05T05:53:33.771Z,18.30
2018-07-05T05:56:13.583Z,18.40
2018-07-05T05:58:53.264Z,18.60
2018-07-05T06:01:32.907Z,18.70
2018-07-05T06:04:12.646Z,18.90
2018-07-05T06:06:52.577Z,18.90
2018-07-05T06:09:32.361Z,19.00
2018-07-05T06:12:11.961Z,19.20
2018-07-05T06:14:51.525Z,19.40
2018-07-05T06:17:31.343Z,19.50
2018-07-05T06:20:10.832Z,19.60
2018-07-05T06:22:50.352Z,19.60
2018-07-05T06:25:30.718Z,19.80
2018-07-05T06:28:10.551Z,19.90
2018-07-05T06:30:50.473Z,20.00
2018-07-05T06:36:04.410Z,20.30
2018-07-05T06:38:44.111Z,20.50
2018-07-05T06:41:23.752Z,20.80
2018-07-05T06:44:03.530Z,21.20
2018-07-05T06:46:43.328Z,21.40
2018-07-05T06:49:23.159Z,21.70
2018-07-05T06:52:02.976Z,22.00
2018-07-05T06:54:42.757Z,22.20
2018-07-05T06:57:22.535Z,22.40
2018-07-05T07:00:02.214Z,22.60
2018-07-05T07:02:41.837Z,22.60
2018-07-05T07:05:21.762Z,22.50
2018-07-05T07:08:01.688Z,22.60
2018-07-05T07:10:41.621Z,22.70
2018-07-05T07:13:21.285Z,22.60
2018-07-05T07:16:01.162Z,22.70
2018-07-05T07:18:41.246Z,22.70
2018-07-05T07:21:20.925Z,22.80
2018-07-05T07:24:00.544Z,22.90
2018-07-05T07:26:40.240Z,22.80
2018-07-05T07:29:20.044Z,23.00
2018-07-05T07:31:59.905Z,23.00
2018-07-05T07:34:39.536Z,23.20
2018-07-05T07:37:19.526Z,23.00
2018-07-05T07:39:59.390Z,22.90
2018-07-05T07:42:26.710Z,23.10
2018-07-05T07:44:54.408Z,23.10
2018-07-05T07:47:22.033Z,23.30
2018-07-05T07:49:49.491Z,23.40
2018-07-05T07:52:16.949Z,23.50
2018-07-05T07:54:44.641Z,23.60
2018-07-05T07:57:11.962Z,23.60
2018-07-05T07:59:39.260Z,23.70
2018-07-05T08:02:06.868Z,23.50
2018-07-05T08:04:34.177Z,23.40
2018-07-05T08:07:01.768Z,23.90
2018-07-05T08:09:29.066Z,24.30
2018-07-05T08:11:56.683Z,24.60
2018-07-05T08:14:24.259Z,24.90
2018-07-05T08:16:51.633Z,24.80
2018-07-05T08:19:18.947Z,24.80
2018-07-05T08:21:46.536Z,25.00
2018-07-05T08:24:14.152Z,24.90
2018-07-05T08:26:41.704Z,25.00
2018-07-05T08:29:09.283Z,25.10
2018-07-05T08:31:36.590Z,25.10
2018-07-05T08:34:04.156Z,24.70
2018-07-05T08:36:31.741Z,24.60
2018-07-05T08:38:59.100Z,24.90
2018-07-05T08:41:26.589Z,24.90
2018-07-05T08:43:53.995Z,24.90
2018-07-05T08:46:21.302Z,24.60
2018-07-05T08:48:48.617Z,25.30
2018-07-05T08:51:16.189Z,25.60
2018-07-05T08:53:43.801Z,26.00
2018-07-05T08:56:11.138Z,26.40
2018-07-05T08:58:38.436Z,26.70
2018-07-05T09:01:06.128Z,27.00
2018-07-05T09:03:33.647Z,27.20
2018-07-05T09:06:01.040Z,27.10
2018-07-05T09:08:28.564Z,27.00
2018-07-05T09:10:55.873Z,26.60
2018-07-05T09:13:23.193Z,27.00
2018-07-05T09:15:50.532Z,27.10
2018-07-05T09:18:18.250Z,27.50
2018-07-05T09:20:47.033Z,27.90
2018-07-05T09:23:14.678Z,29.00
2018-07-05T09:25:42.377Z,29.30
2018-07-05T09:28:09.922Z,30.00
2018-07-05T09:30:37.221Z,30.30
2018-07-05T09:33:04.699Z,30.20
2018-07-05T09:35:32.267Z,29.90
2018-07-05T09:37:59.951Z,29.50
2018-07-05T09:40:27.244Z,29.30
2018-07-05T09:42:54.533Z,29.50
2018-07-05T09:45:21.910Z,29.40
2018-07-05T09:47:49.516Z,29.10
2018-07-05T09:50:16.907Z,29.20
2018-07-05T09:52:44.520Z,29.30
2018-07-05T09:55:12.216Z,28.60
2018-07-05T09:57:39.535Z,28.20
2018-07-05T10:00:08.080Z,28.20
2018-07-05T10:02:35.746Z,28.30
2018-07-05T10:05:03.032Z,28.50
2018-07-05T10:07:30.348Z,28.70
2018-07-05T10:09:58.022Z,29.30
2018-07-05T10:12:25.727Z,29.80
2018-07-05T10:14:53.041Z,29.90
2018-07-05T10:17:20.936Z,29.70
2018-07-05T10:19:48.628Z,30.10
2018-07-05T10:22:16.195Z,30.90
2018-07-05T10:24:43.591Z,30.50
2018-07-05T10:27:11.196Z,30.90
2018-07-05T10:29:51.007Z,31.40
2018-07-05T10:32:30.879Z,32.50
2018-07-05T10:34:58.455Z,33.50
2018-07-05T10:37:26.035Z,33.60
2018-07-05T10:40:06.907Z,33.30
2018-07-05T10:42:47.832Z,33.10
2018-07-05T10:45:27.255Z,33.20
2018-07-05T10:48:06.931Z,33.50
2018-07-05T10:50:46.859Z,32.50
2018-07-05T10:53:27.219Z,31.30
2018-07-05T10:56:08.534Z,30.60
2018-07-05T10:58:48.062Z,30.40
2018-07-05T11:01:27.902Z,30.80
2018-07-05T11:06:43.067Z,31.10
2018-07-05T11:09:23.881Z,31.90
2018-07-05T11:12:03.697Z,32.20
2018-07-05T11:14:44.032Z,32.40
2018-07-05T11:17:23.834Z,32.30
2018-07-05T11:20:04.075Z,32.20
2018-07-05T11:22:43.855Z,32.20
2018-07-05T11:25:23.570Z,32.50
2018-07-05T11:28:03.630Z,33.00
2018-07-05T11:30:43.309Z,33.30
2018-07-05T11:33:23.029Z,33.60
2018-07-05T11:36:02.633Z,34.80
2018-07-05T11:38:42.195Z,34.40
2018-07-05T11:41:22.029Z,33.20
2018-07-05T11:44:01.881Z,32.30
2018-07-05T11:46:41.767Z,31.60
2018-07-05T11:49:21.696Z,31.10
2018-07-05T11:52:01.488Z,30.30
2018-07-05T11:54:41.370Z,29.50
2018-07-05T11:57:21.204Z,28.80
2018-07-05T12:00:00.868Z,28.20
2018-07-05T13:48:10.197Z,25.70
2018-07-05T13:50:50.848Z,25.40
2018-07-05T13:53:34.326Z,25.30
2018-07-05T13:58:48.804Z,25.50
2018-07-05T14:01:30.620Z,25.70
2018-07-05T14:04:10.521Z,25.70
2018-07-05T14:06:50.180Z,25.90
2018-07-05T14:09:29.832Z,25.70
2018-07-05T14:12:09.793Z,25.60
2018-07-05T14:14:49.578Z,25.60
2018-07-05T14:17:29.548Z,25.40
2018-07-05T14:20:09.172Z,25.10
2018-07-05T14:22:48.988Z,25.10
2018-07-05T14:25:28.869Z,25.20
2018-07-05T14:28:09.568Z,25.20
2018-07-05T14:30:49.473Z,25.20
2018-07-05T14:33:29.368Z,25.40
2018-07-05T14:36:08.947Z,25.20
2018-07-05T14:38:48.555Z,25.30
2018-07-05T14:41:30.162Z,25.50
2018-07-05T14:44:10.660Z,25.30
2018-07-05T14:46:50.657Z,25.00
2018-07-05T14:49:30.476Z,25.00
2018-07-05T14:52:10.358Z,24.80
2018-07-05T14:54:50.140Z,24.60
2018-07-05T14:57:30.868Z,24.50
2018-07-05T15:00:13.317Z,24.50
2018-07-05T15:02:53.333Z,24.30
2018-07-05T15:05:33.168Z,24.40
2018-07-05T15:08:13.985Z,24.20
2018-07-05T15:10:54.312Z,24.10
2018-07-05T15:13:34.018Z,24.20
2018-07-05T15:16:13.804Z,24.40
2018-07-05T15:18:53.632Z,24.40
2018-07-05T15:21:35.222Z,24.50
2018-07-05T15:24:15.265Z,24.30
2018-07-05T15:26:55.329Z,24.10
2018-07-05T15:29:35.708Z,24.10
2018-07-05T15:32:16.242Z,23.90
2018-07-05T15:34:56.197Z,23.70
2018-07-05T15:37:37.725Z,23.70
2018-07-05T15:40:19.175Z,23.70
2018-07-05T15:42:59.182Z,23.50
2018-07-05T15:45:39.682Z,23.40
2018-07-05T15:48:19.507Z,23.50
2018-07-05T15:50:59.275Z,23.30
2018-07-05T15:53:41.835Z,23.20
2018-07-05T15:56:21.875Z,23.20
2018-07-05T15:59:06.145Z,23.10
2018-07-05T16:01:46.390Z,22.90
2018-07-05T16:04:26.172Z,22.80
2018-07-05T16:07:09.465Z,22.80
2018-07-05T16:09:49.134Z,22.90
2018-07-05T16:12:29.092Z,22.80
2018-07-05T16:15:08.843Z,22.80
2018-07-05T16:17:48.632Z,22.80
2018-07-05T16:20:28.476Z,22.90
2018-07-05T16:23:08.072Z,22.70
2018-07-05T16:25:47.887Z,22.80
2018-07-05T16:28:27.461Z,22.80
2018-07-05T16:31:07.136Z,22.80
2018-07-05T16:33:46.940Z,22.70
2018-07-05T16:36:26.648Z,22.70
2018-07-05T16:39:06.510Z,22.50
2018-07-05T16:41:46.108Z,22.50
2018-07-05T16:44:26.022Z,22.50
2018-07-05T16:47:05.872Z,22.50
2018-07-05T16:49:45.619Z,22.40
2018-07-05T16:52:28.258Z,22.50
2018-07-05T16:55:08.068Z,22.40
2018-07-05T16:57:47.753Z,22.40
2018-07-05T17:03:01.091Z,22.10
2018-07-05T17:05:40.852Z,22.00
2018-07-05T17:10:54.267Z,22.00
2018-07-05T17:13:33.991Z,22.00
2018-07-05T17:16:13.533Z,22.00
2018-07-05T17:18:53.434Z,22.00
2018-07-05T17:21:33.112Z,21.80
2018-07-05T17:24:12.840Z,21.80
2018-07-05T17:26:52.393Z,21.80
2018-07-05T17:29:32.237Z,21.70
2018-07-05T17:32:12.237Z,21.60
2018-07-05T17:34:51.912Z,21.60
2018-07-05T17:37:31.724Z,21.40
2018-07-05T17:40:11.626Z,21.40
2018-07-05T17:42:51.536Z,21.20
2018-07-05T17:45:31.741Z,21.20
2018-07-05T17:48:11.827Z,21.10
2018-07-05T17:50:51.856Z,21.10
2018-07-05T17:53:32.004Z,21.10
2018-07-05T17:56:11.768Z,21.00
2018-07-05T17:58:51.736Z,21.00
2018-07-05T18:01:31.736Z,20.90
2018-07-05T18:04:11.832Z,21.00
2018-07-05T18:06:51.347Z,20.90
2018-07-05T18:09:31.080Z,20.90
2018-07-05T18:12:10.780Z,20.90
2018-07-05T18:14:50.736Z,20.90
2018-07-05T18:17:30.433Z,21.00
2018-07-05T18:20:09.986Z,21.00
2018-07-05T18:22:49.737Z,21.00
2018-07-05T18:25:29.629Z,21.00
2018-07-05T18:28:09.240Z,21.00
2018-07-05T18:30:48.961Z,21.00
2018-07-05T18:33:28.755Z,21.00
2018-07-05T18:36:08.833Z,21.00
2018-07-05T18:38:48.469Z,20.90
2018-07-05T18:44:03.064Z,20.80
2018-07-05T18:46:42.604Z,20.80
2018-07-05T18:49:22.204Z,20.70
2018-07-05T18:52:02.258Z,20.70
2018-07-05T18:54:42.312Z,20.70
2018-07-05T18:57:22.043Z,20.60
2018-07-05T19:00:02.065Z,20.60
2018-07-05T19:02:41.601Z,20.50
2018-07-05T19:05:21.446Z,20.50
2018-07-05T19:08:01.035Z,20.50
2018-07-05T19:10:40.793Z,20.50
2018-07-05T19:13:20.704Z,20.50
2018-07-05T19:16:00.373Z,20.40
2018-07-05T19:18:40.231Z,20.40
2018-07-05T19:21:19.881Z,20.40
2018-07-05T19:23:59.925Z,20.40
2018-07-05T19:26:39.892Z,20.30
2018-07-05T19:29:19.440Z,20.40
2018-07-05T19:31:59.232Z,20.40
2018-07-05T19:34:39.526Z,20.30
2018-07-05T19:37:19.326Z,20.30
2018-07-05T19:39:58.889Z,20.30
2018-07-05T19:42:38.548Z,20.30
2018-07-05T19:47:52.201Z,20.20
2018-07-05T19:50:32.097Z,20.20
2018-07-05T19:53:11.929Z,20.20
2018-07-05T19:55:51.523Z,20.20
2018-07-05T19:58:31.217Z,20.20
2018-07-05T20:01:12.141Z,20.20
2018-07-05T20:03:51.785Z,20.20
2018-07-05T20:06:31.363Z,20.10
2018-07-05T20:09:10.836Z,20.00
2018-07-05T20:11:56.094Z,19.80
2018-07-05T20:14:35.653Z,19.60
2018-07-05T20:17:15.513Z,19.40
2018-07-05T20:19:55.515Z,19.40
2018-07-05T20:22:35.285Z,19.10
2018-07-05T20:25:14.972Z,18.80
2018-07-05T20:27:54.754Z,18.70
2018-07-05T20:30:34.773Z,18.50
2018-07-05T20:33:14.390Z,18.40
2018-07-05T20:35:54.356Z,18.30
2018-07-05T20:38:33.973Z,18.20
2018-07-05T20:41:13.715Z,18.10
2018-07-05T20:43:53.824Z,18.00
2018-07-05T20:46:33.568Z,17.90
2018-07-05T20:51:47.235Z,17.80
2018-07-05T20:57:00.584Z,17.70
2018-07-05T20:59:40.038Z,17.60
2018-07-05T21:02:19.940Z,17.60
2018-07-05T21:05:01.224Z,17.50
2018-07-05T21:07:41.484Z,17.50
2018-07-05T21:10:21.430Z,17.40
2018-07-05T21:15:34.773Z,17.40
2018-07-05T21:18:14.853Z,17.50
2018-07-05T21:20:54.812Z,17.40
2018-07-05T21:23:34.800Z,17.40
2018-07-05T21:26:14.588Z,17.40
2018-07-05T21:28:54.210Z,17.40
2018-07-05T21:31:34.103Z,17.40
2018-07-05T21:34:14.241Z,17.40
2018-07-05T21:36:53.850Z,17.40
2018-07-05T21:39:33.548Z,17.30
2018-07-05T21:42:13.276Z,17.30
2018-07-05T21:44:52.882Z,17.20
2018-07-05T21:47:32.796Z,17.20
2018-07-05T21:50:12.940Z,17.30
2018-07-05T21:52:52.722Z,17.30
2018-07-05T21:55:32.408Z,17.30
2018-07-05T21:58:12.167Z,17.30
2018-07-05T22:00:52.080Z,17.30
2018-07-05T22:03:32.220Z,17.20
2018-07-05T22:06:12.212Z,17.20
2018-07-05T22:08:51.948Z,17.10
2018-07-05T22:11:32.016Z,17.10
2018-07-05T22:14:11.557Z,17.10
2018-07-05T22:16:56.569Z,17.00
2018-07-05T22:19:41.740Z,17.10
2018-07-05T22:22:27.064Z,17.10
2018-07-05T22:27:51.660Z,17.00
2018-07-05T22:30:36.697Z,17.00
2018-07-05T22:33:16.453Z,17.00
2018-07-05T22:35:56.289Z,17.00
2018-07-05T22:38:36.189Z,17.00
2018-07-05T22:41:15.869Z,16.90
2018-07-05T22:43:55.463Z,16.90
2018-07-05T22:46:35.255Z,16.90
2018-07-05T22:49:14.871Z,16.90
2018-07-05T22:51:54.657Z,16.90
2018-07-05T22:54:34.745Z,16.90
2018-07-05T22:57:14.659Z,16.90
2018-07-05T22:59:54.412Z,16.90
2018-07-05T23:02:34.068Z,16.90
2018-07-05T23:05:13.769Z,16.90
2018-07-05T23:07:53.268Z,16.90
2018-07-05T23:10:33.109Z,16.90
2018-07-05T23:13:12.869Z,17.00
2018-07-05T23:15:52.468Z,17.00
2018-07-05T23:18:32.384Z,17.00
2018-07-05T23:21:12.149Z,17.00
2018-07-05T23:23:52.128Z,17.10
2018-07-05T23:26:31.787Z,17.00
2018-07-05T23:29:11.598Z,17.00
2018-07-05T23:31:51.605Z,17.00
2018-07-05T23:34:31.356Z,17.00
2018-07-05T23:37:10.966Z,17.00
2018-07-05T23:39:50.732Z,17.00
2018-07-05T23:42:30.448Z,17.00
2018-07-05T23:45:10.092Z,16.90
2018-07-05T23:47:49.868Z,16.90
2018-07-05T23:50:29.428Z,16.90
2018-07-05T23:53:09.113Z,16.90
2018-07-05T23:55:48.779Z,16.80
